createdAt,value
2017-12-19T00:00:51.951Z,6.77
2017-12-19T00:03:23.169Z,8.57
2017-12-19T00:05:53.612Z,9.93
2017-12-19T00:08:24.806Z,7.70
2017-12-19T00:10:55.271Z,6.33
2017-12-19T00:13:25.715Z,12.50
2017-12-19T00:15:56.943Z,7.40
2017-12-19T00:18:27.401Z,12.50
2017-12-19T00:20:58.606Z,8.97
2017-12-19T00:23:29.066Z,7.37
2017-12-19T00:26:00.260Z,15.60
2017-12-19T00:28:30.706Z,29.27
2017-12-19T00:31:01.140Z,25.70
2017-12-19T00:33:31.590Z,23.33
2017-12-19T00:36:02.786Z,17.83
2017-12-19T00:38:33.286Z,17.60
2017-12-19T00:41:03.762Z,12.13
2017-12-19T00:43:34.226Z,37.67
2017-12-19T00:46:05.414Z,26.63
2017-12-19T00:48:35.897Z,14.33
2017-12-19T00:51:07.102Z,10.97
2017-12-19T00:53:37.555Z,13.20
2017-12-19T00:56:08.802Z,20.00
2017-12-19T00:58:40.025Z,18.53
2017-12-19T01:01:10.424Z,31.13
2017-12-19T01:03:40.855Z,14.53
2017-12-19T01:06:11.329Z,10.33
2017-12-19T01:08:42.542Z,18.13
2017-12-19T01:11:13.001Z,10.70
2017-12-19T01:13:44.227Z,15.33
2017-12-19T01:16:14.710Z,12.97
2017-12-19T01:18:45.173Z,19.77
2017-12-19T01:21:15.612Z,9.20
2017-12-19T01:23:46.057Z,23.77
2017-12-19T01:26:17.263Z,11.50
2017-12-19T01:28:47.711Z,17.90
2017-12-19T01:31:18.185Z,17.90
2017-12-19T01:33:48.611Z,13.10
2017-12-19T01:36:19.046Z,14.33
2017-12-19T01:38:49.542Z,10.63
2017-12-19T01:41:20.783Z,12.20
2017-12-19T01:43:51.990Z,13.47
2017-12-19T01:46:22.397Z,14.47
2017-12-19T01:48:52.858Z,10.07
2017-12-19T01:51:23.336Z,12.77
2017-12-19T01:53:54.654Z,10.27
2017-12-19T01:56:25.862Z,8.47
2017-12-19T01:58:56.299Z,6.87
2017-12-19T02:01:26.715Z,11.73
2017-12-19T02:03:57.197Z,6.60
2017-12-19T02:06:27.638Z,13.03
2017-12-19T02:08:58.060Z,8.20
2017-12-19T02:11:28.501Z,8.40
2017-12-19T02:13:58.964Z,9.10
2017-12-19T02:16:29.734Z,7.20
2017-12-19T02:19:00.219Z,10.37
2017-12-19T02:21:30.696Z,12.40
2017-12-19T02:24:01.173Z,8.60
2017-12-19T02:26:31.633Z,18.47
2017-12-19T02:29:02.838Z,7.90
2017-12-19T02:31:33.275Z,15.93
2017-12-19T02:34:03.775Z,11.83
2017-12-19T02:36:34.232Z,8.57
2017-12-19T02:39:04.774Z,12.90
2017-12-19T02:41:35.203Z,10.10
2017-12-19T02:44:05.699Z,17.00
2017-12-19T02:46:36.149Z,11.90
2017-12-19T02:49:06.594Z,14.83
2017-12-19T02:51:37.849Z,14.13
2017-12-19T02:54:08.386Z,14.27
2017-12-19T02:56:39.568Z,9.63
2017-12-19T02:59:10.035Z,16.07
2017-12-19T03:01:40.575Z,10.57
2017-12-19T03:04:11.778Z,8.03
2017-12-19T03:06:42.247Z,13.57
2017-12-19T03:09:13.521Z,8.30
2017-12-19T03:11:43.982Z,10.97
2017-12-19T03:14:14.818Z,15.10
2017-12-19T03:16:45.287Z,9.53
2017-12-19T03:19:16.534Z,11.77
2017-12-19T03:21:47.778Z,14.63
2017-12-19T03:24:19.021Z,12.90
2017-12-19T03:26:50.274Z,20.63
2017-12-19T03:29:21.545Z,7.60
2017-12-19T03:31:52.009Z,7.30
2017-12-19T03:34:22.489Z,9.60
2017-12-19T03:36:52.971Z,15.93
2017-12-19T03:39:23.431Z,9.53
2017-12-19T03:41:53.911Z,9.30
2017-12-19T03:44:24.427Z,7.70
2017-12-19T03:46:54.942Z,9.30
2017-12-19T03:49:26.402Z,11.47
2017-12-19T03:51:56.888Z,10.33
2017-12-19T03:54:28.137Z,11.23
2017-12-19T03:56:59.477Z,14.00
2017-12-19T03:59:30.738Z,10.17
2017-12-19T04:02:01.971Z,8.13
2017-12-19T04:04:33.229Z,5.77
2017-12-19T04:07:04.472Z,23.37
2017-12-19T04:09:35.710Z,9.60
2017-12-19T04:12:06.930Z,12.03
2017-12-19T04:14:37.410Z,10.17
2017-12-19T04:17:07.850Z,6.20
2017-12-19T04:19:38.316Z,6.80
2017-12-19T04:22:08.811Z,10.13
2017-12-19T04:24:39.284Z,9.90
2017-12-19T04:27:10.519Z,7.20
2017-12-19T04:29:40.994Z,11.87
2017-12-19T04:32:11.423Z,9.57
2017-12-19T04:34:41.943Z,10.70
2017-12-19T04:37:12.355Z,9.43
2017-12-19T04:39:43.567Z,10.67
2017-12-19T04:42:14.804Z,11.13
2017-12-19T04:44:45.251Z,14.83
2017-12-19T04:47:15.767Z,6.90
2017-12-19T04:49:46.207Z,10.67
2017-12-19T04:52:16.648Z,6.13
2017-12-19T04:54:47.905Z,6.47
2017-12-19T04:57:19.127Z,14.03
2017-12-19T04:59:49.597Z,9.20
2017-12-19T05:02:20.050Z,10.37
2017-12-19T05:04:50.522Z,8.73
2017-12-19T05:07:21.753Z,15.23
2017-12-19T05:09:52.230Z,18.30
2017-12-19T05:12:23.540Z,7.17
2017-12-19T05:14:54.765Z,7.63
2017-12-19T05:17:25.226Z,12.13
2017-12-19T05:19:56.464Z,7.63
2017-12-19T05:22:27.694Z,12.17
2017-12-19T05:24:58.176Z,8.77
2017-12-19T05:27:28.607Z,10.40
2017-12-19T05:29:59.079Z,8.23
2017-12-19T05:32:29.501Z,6.57
2017-12-19T05:35:00.027Z,9.87
2017-12-19T05:37:30.499Z,7.97
2017-12-19T05:40:00.974Z,18.10
2017-12-19T05:42:32.362Z,13.33
2017-12-19T05:45:03.595Z,13.40
2017-12-19T05:47:34.812Z,10.33
2017-12-19T05:50:05.260Z,10.83
2017-12-19T05:52:36.508Z,6.10
2017-12-19T05:55:07.818Z,8.40
2017-12-19T05:57:39.046Z,5.80
2017-12-19T06:00:09.574Z,11.90
2017-12-19T06:02:40.043Z,7.30
2017-12-19T06:05:10.487Z,10.23
2017-12-19T06:07:41.757Z,6.37
2017-12-19T06:10:12.206Z,5.23
2017-12-19T06:12:42.674Z,7.83
2017-12-19T06:15:13.143Z,6.20
2017-12-19T06:17:43.572Z,6.13
2017-12-19T06:20:14.002Z,7.73
2017-12-19T06:22:44.432Z,12.63
2017-12-19T06:25:14.933Z,8.60
2017-12-19T06:27:46.170Z,6.03
2017-12-19T06:30:17.546Z,5.30
2017-12-19T06:32:47.962Z,5.40
2017-12-19T06:35:18.413Z,6.53
2017-12-19T06:37:48.870Z,6.27
2017-12-19T06:40:19.344Z,6.20
2017-12-19T06:42:49.816Z,5.97
2017-12-19T06:45:20.591Z,8.13
2017-12-19T06:47:51.790Z,8.23
2017-12-19T06:50:22.251Z,8.07
2017-12-19T06:52:53.509Z,7.17
2017-12-19T06:55:24.726Z,6.10
2017-12-19T06:57:55.207Z,14.27
2017-12-19T07:00:25.982Z,6.30
2017-12-19T07:02:56.432Z,9.33
2017-12-19T07:05:26.873Z,5.50
2017-12-19T07:07:58.081Z,17.47
2017-12-19T07:10:29.133Z,8.97
2017-12-19T07:12:59.577Z,9.60
2017-12-19T07:15:31.091Z,6.27
2017-12-19T07:18:01.542Z,11.00
2017-12-19T07:20:31.989Z,10.80
2017-12-19T07:23:03.215Z,7.70
2017-12-19T07:25:33.671Z,5.13
2017-12-19T07:28:04.932Z,6.00
2017-12-19T07:30:35.410Z,7.60
2017-12-19T07:33:05.830Z,7.83
2017-12-19T07:35:36.322Z,18.40
2017-12-19T07:38:06.799Z,5.47
2017-12-19T07:40:37.239Z,8.83
2017-12-19T07:43:08.427Z,6.30
2017-12-19T07:45:38.914Z,7.60
2017-12-19T07:48:10.140Z,17.07
2017-12-19T07:50:41.373Z,11.43
2017-12-19T07:53:11.763Z,6.87
2017-12-19T07:55:42.219Z,11.13
2017-12-19T07:58:12.656Z,5.80
2017-12-19T08:00:43.086Z,9.50
2017-12-19T08:03:13.564Z,6.40
2017-12-19T08:05:43.991Z,6.17
2017-12-19T08:08:14.407Z,10.37
2017-12-19T08:10:44.868Z,5.83
2017-12-19T08:13:15.333Z,10.47
2017-12-19T08:15:45.799Z,5.70
2017-12-19T08:18:16.219Z,5.63
2017-12-19T08:20:46.669Z,5.73
2017-12-19T08:23:17.106Z,11.40
2017-12-19T08:25:47.864Z,7.20
2017-12-19T08:28:18.487Z,5.60
2017-12-19T08:30:48.924Z,6.20
2017-12-19T08:33:19.374Z,9.83
2017-12-19T08:35:50.570Z,5.97
2017-12-19T08:38:20.999Z,5.23
2017-12-19T08:40:51.450Z,8.57
2017-12-19T08:43:21.905Z,7.87
2017-12-19T08:45:53.127Z,12.73
2017-12-19T08:48:23.568Z,12.73
2017-12-19T08:50:54.754Z,9.90
2017-12-19T08:53:25.161Z,7.17
2017-12-19T08:55:55.601Z,7.50
2017-12-19T08:58:26.082Z,7.20
2017-12-19T09:00:56.535Z,6.63
2017-12-19T09:03:27.723Z,11.00
2017-12-19T09:05:58.168Z,7.27
2017-12-19T09:08:28.571Z,6.27
2017-12-19T09:10:59.887Z,14.30
2017-12-19T09:13:30.342Z,9.10
2017-12-19T09:16:00.774Z,11.80
2017-12-19T09:18:31.175Z,12.77
2017-12-19T09:21:01.654Z,11.77
2017-12-19T09:23:32.073Z,15.20
2017-12-19T09:26:02.568Z,16.37
2017-12-19T09:28:33.034Z,13.73
2017-12-19T09:31:03.489Z,8.90
2017-12-19T09:33:34.659Z,12.90
2017-12-19T09:36:05.099Z,14.77
2017-12-19T09:38:35.519Z,7.00
2017-12-19T09:41:05.977Z,9.37
2017-12-19T09:43:36.436Z,6.73
2017-12-19T09:46:07.647Z,6.80
2017-12-19T09:48:38.096Z,9.17
2017-12-19T09:51:08.948Z,14.37
2017-12-19T09:53:40.166Z,13.43
2017-12-19T09:56:10.639Z,14.13
2017-12-19T09:58:41.073Z,10.70
2017-12-19T10:01:11.508Z,10.20
2017-12-19T10:03:41.968Z,11.33
2017-12-19T10:06:12.417Z,7.93
2017-12-19T10:08:42.861Z,10.60
2017-12-19T10:11:14.087Z,10.07
2017-12-19T10:13:44.527Z,10.53
2017-12-19T10:16:15.841Z,10.43
2017-12-19T10:18:51.524Z,14.83
2017-12-19T10:21:22.741Z,8.90
2017-12-19T10:23:53.202Z,10.30
2017-12-19T10:26:24.518Z,10.00
2017-12-19T10:28:55.009Z,12.33
2017-12-19T10:31:25.501Z,9.20
2017-12-19T10:33:56.691Z,14.70
2017-12-19T10:36:28.725Z,17.07
2017-12-19T10:38:59.926Z,13.23
2017-12-19T10:41:30.357Z,9.00
2017-12-19T10:44:00.781Z,14.73
2017-12-19T10:46:31.301Z,11.20
2017-12-19T10:49:01.804Z,11.33
2017-12-19T10:51:32.278Z,19.10
2017-12-19T10:54:02.761Z,15.67
2017-12-19T10:56:33.190Z,22.53
2017-12-19T10:59:03.661Z,17.03
2017-12-19T11:01:34.936Z,12.90
2017-12-19T11:04:05.374Z,10.23
2017-12-19T11:06:35.825Z,10.00
2017-12-19T11:09:06.679Z,22.70
2017-12-19T11:11:37.138Z,15.73
2017-12-19T11:14:08.331Z,13.03
2017-12-19T11:16:38.794Z,15.60
2017-12-19T11:19:09.219Z,15.23
2017-12-19T11:21:39.738Z,14.37
2017-12-19T11:24:10.217Z,14.90
2017-12-19T11:26:40.766Z,17.37
2017-12-19T11:29:11.369Z,16.43
2017-12-19T11:31:41.886Z,12.07
2017-12-19T11:34:13.237Z,11.67
2017-12-19T11:36:44.502Z,10.90
2017-12-19T11:39:15.001Z,15.20
2017-12-19T11:41:46.217Z,16.90
2017-12-19T11:44:16.856Z,10.80
2017-12-19T11:46:47.319Z,15.43
2017-12-19T11:49:18.504Z,18.40
2017-12-19T11:51:49.027Z,15.10
2017-12-19T11:54:19.473Z,18.13
2017-12-19T11:56:49.946Z,15.63
2017-12-19T11:59:20.379Z,23.87
2017-12-19T12:01:50.862Z,15.57
2017-12-19T12:04:21.332Z,13.63
2017-12-19T12:06:51.804Z,17.73
2017-12-19T12:09:22.299Z,19.67
2017-12-19T12:11:52.740Z,16.77
2017-12-19T12:14:23.227Z,12.70
2017-12-19T12:16:54.437Z,12.67
2017-12-19T12:19:24.908Z,17.13
2017-12-19T12:21:55.330Z,15.23
2017-12-19T12:24:26.526Z,10.63
2017-12-19T12:26:57.002Z,22.53
2017-12-19T12:29:28.218Z,9.50
2017-12-19T12:31:58.693Z,13.77
2017-12-19T12:34:29.107Z,10.90
2017-12-19T12:37:00.308Z,15.00
2017-12-19T12:39:30.771Z,11.33
2017-12-19T12:42:02.009Z,14.43
2017-12-19T12:44:32.454Z,16.23
2017-12-19T12:47:02.906Z,11.27
2017-12-19T12:49:33.330Z,19.33
2017-12-19T12:52:03.771Z,9.93
2017-12-19T12:54:34.199Z,14.17
2017-12-19T12:57:04.650Z,11.10
2017-12-19T12:59:35.088Z,14.10
2017-12-19T13:02:05.579Z,14.03
2017-12-19T13:04:36.019Z,9.80
2017-12-19T13:07:06.497Z,16.40
2017-12-19T13:09:37.674Z,11.57
2017-12-19T13:12:08.133Z,15.13
2017-12-19T13:14:38.558Z,10.13
2017-12-19T13:17:09.244Z,29.17
2017-12-19T13:19:39.709Z,10.23
2017-12-19T13:22:10.138Z,13.83
2017-12-19T13:24:40.592Z,11.50
2017-12-19T13:27:11.848Z,15.30
2017-12-19T13:29:43.031Z,18.37
2017-12-19T13:32:13.482Z,17.73
2017-12-19T13:34:43.978Z,15.57
2017-12-19T13:37:14.409Z,16.43
2017-12-19T13:39:44.822Z,17.03
2017-12-19T13:42:15.330Z,16.57
2017-12-19T13:44:46.544Z,14.63
2017-12-19T13:47:16.979Z,13.00
2017-12-19T13:49:47.374Z,16.20
2017-12-19T13:52:17.812Z,14.70
2017-12-19T13:54:48.239Z,15.10
2017-12-19T13:57:18.708Z,21.20
2017-12-19T13:59:49.925Z,14.77
2017-12-19T14:02:20.367Z,18.40
2017-12-19T14:04:50.814Z,14.40
2017-12-19T14:07:21.272Z,16.47
2017-12-19T14:09:51.708Z,13.20
2017-12-19T14:12:22.185Z,12.67
2017-12-19T14:14:53.378Z,12.20
2017-12-19T14:17:23.840Z,18.17
2017-12-19T14:19:54.270Z,15.87
2017-12-19T14:22:24.728Z,17.13
2017-12-19T14:24:55.151Z,24.67
2017-12-19T14:27:26.347Z,13.53
2017-12-19T14:29:56.796Z,20.50
2017-12-19T14:32:27.262Z,24.70
2017-12-19T14:34:57.686Z,19.13
2017-12-19T14:37:28.113Z,18.80
2017-12-19T14:39:58.547Z,16.73
2017-12-19T14:42:29.002Z,20.57
2017-12-19T14:44:59.478Z,20.43
2017-12-19T14:47:30.709Z,27.90
2017-12-19T14:50:01.928Z,17.80
2017-12-19T14:52:32.419Z,18.83
2017-12-19T14:55:02.862Z,19.77
2017-12-19T14:57:33.407Z,21.23
2017-12-19T15:00:03.890Z,21.07
2017-12-19T15:02:34.402Z,20.87
2017-12-19T15:05:05.611Z,22.63
2017-12-19T15:07:36.073Z,27.03
2017-12-19T15:10:07.284Z,17.20
2017-12-19T15:12:37.762Z,21.83
2017-12-19T15:15:08.217Z,19.03
2017-12-19T15:17:38.864Z,21.07
2017-12-19T15:20:09.350Z,19.70
2017-12-19T15:22:39.895Z,20.80
2017-12-19T15:25:10.422Z,22.10
2017-12-19T15:27:40.886Z,27.93
2017-12-19T15:30:11.332Z,25.37
2017-12-19T15:32:41.840Z,18.73
2017-12-19T15:35:12.267Z,19.63
2017-12-19T15:37:43.505Z,15.57
2017-12-19T15:40:13.923Z,20.43
2017-12-19T15:42:44.385Z,22.70
2017-12-19T15:45:14.842Z,22.03
2017-12-19T15:47:45.281Z,22.33
2017-12-19T15:50:15.742Z,17.30
2017-12-19T15:52:46.206Z,19.27
2017-12-19T15:55:17.414Z,19.03
2017-12-19T15:57:47.879Z,24.43
2017-12-19T16:00:19.093Z,34.30
2017-12-19T16:02:49.565Z,21.20
2017-12-19T16:05:20.782Z,26.30
2017-12-19T16:07:51.239Z,22.37
2017-12-19T16:10:22.432Z,18.50
2017-12-19T16:12:52.896Z,22.60
2017-12-19T16:15:24.110Z,18.33
2017-12-19T16:17:54.564Z,17.07
2017-12-19T16:20:25.757Z,19.63
2017-12-19T16:22:56.218Z,21.37
2017-12-19T16:25:26.698Z,20.27
2017-12-19T16:27:57.129Z,19.10
2017-12-19T16:30:27.652Z,21.20
2017-12-19T16:32:58.127Z,20.03
2017-12-19T16:35:28.600Z,30.77
2017-12-19T16:37:59.050Z,20.60
2017-12-19T16:40:29.519Z,24.30
2017-12-19T16:43:00.000Z,24.47
2017-12-19T16:45:30.471Z,26.83
2017-12-19T16:48:00.939Z,28.53
2017-12-19T16:50:31.380Z,21.70
2017-12-19T16:53:01.831Z,22.87
2017-12-19T16:55:32.275Z,25.70
2017-12-19T16:58:02.762Z,18.80
2017-12-19T17:00:33.199Z,26.80
2017-12-19T17:03:03.660Z,21.90
2017-12-19T17:05:34.103Z,26.37
2017-12-19T17:08:05.329Z,23.90
2017-12-19T17:10:35.810Z,18.73
2017-12-19T17:13:06.259Z,20.93
2017-12-19T17:15:36.716Z,23.23
2017-12-19T17:18:07.186Z,17.50
2017-12-19T17:20:37.612Z,30.90
2017-12-19T17:23:13.346Z,25.80
2017-12-19T17:25:44.560Z,26.33
2017-12-19T17:28:15.029Z,22.87
2017-12-19T17:30:45.610Z,19.43
2017-12-19T17:33:16.085Z,17.33
2017-12-19T17:35:46.530Z,17.23
2017-12-19T17:38:16.947Z,20.50
2017-12-19T17:40:47.380Z,30.37
2017-12-19T17:43:17.852Z,21.57
2017-12-19T17:45:48.423Z,29.70
2017-12-19T17:48:18.894Z,22.90
2017-12-19T17:50:49.329Z,28.90
2017-12-19T17:53:19.751Z,29.50
2017-12-19T17:55:50.225Z,25.63
2017-12-19T17:58:21.437Z,24.93
2017-12-19T18:00:51.860Z,24.13
2017-12-19T18:03:22.290Z,24.10
2017-12-19T18:05:52.746Z,23.60
2017-12-19T18:08:23.935Z,31.37
2017-12-19T18:10:54.375Z,25.77
2017-12-19T18:13:24.852Z,30.30
2017-12-19T18:15:56.062Z,28.43
2017-12-19T18:18:26.522Z,29.13
2017-12-19T18:20:57.735Z,24.47
2017-12-19T18:23:28.163Z,17.73
2017-12-19T18:25:58.586Z,22.73
2017-12-19T18:28:29.010Z,26.00
2017-12-19T18:30:59.483Z,21.67
2017-12-19T18:33:29.965Z,20.87
2017-12-19T18:36:00.419Z,20.70
2017-12-19T18:38:31.644Z,26.63
2017-12-19T18:41:02.082Z,21.13
2017-12-19T18:43:32.514Z,21.43
2017-12-19T18:46:03.716Z,23.77
2017-12-19T18:48:34.203Z,25.93
2017-12-19T18:51:05.425Z,26.97
2017-12-19T18:53:36.647Z,28.53
2017-12-19T18:56:07.086Z,24.27
2017-12-19T18:58:37.541Z,21.77
2017-12-19T19:01:08.751Z,24.53
2017-12-19T19:03:39.200Z,31.23
2017-12-19T19:06:10.449Z,22.40
2017-12-19T19:08:41.721Z,31.50
2017-12-19T19:11:12.201Z,22.50
2017-12-19T19:13:42.653Z,26.97
2017-12-19T19:16:13.858Z,21.67
2017-12-19T19:18:44.294Z,28.23
2017-12-19T19:21:14.760Z,25.50
2017-12-19T19:23:45.946Z,23.20
2017-12-19T19:26:16.358Z,25.57
2017-12-19T19:28:46.794Z,28.13
2017-12-19T19:31:17.234Z,20.80
2017-12-19T19:33:47.686Z,23.30
2017-12-19T19:36:18.106Z,30.63
2017-12-19T19:38:48.562Z,28.73
2017-12-19T19:41:19.767Z,35.27
2017-12-19T19:43:50.216Z,26.33
2017-12-19T19:46:20.670Z,32.30
2017-12-19T19:48:51.901Z,33.77
2017-12-19T19:51:23.144Z,20.40
2017-12-19T19:53:54.331Z,25.57
2017-12-19T19:56:24.750Z,28.40
2017-12-19T19:58:55.193Z,27.00
2017-12-19T20:01:25.656Z,22.50
2017-12-19T20:03:56.081Z,22.70
2017-12-19T20:06:26.499Z,21.20
2017-12-19T20:08:56.927Z,29.87
2017-12-19T20:11:27.390Z,27.73
2017-12-19T20:13:58.627Z,22.67
2017-12-19T20:16:29.846Z,27.70
2017-12-19T20:19:00.282Z,24.53
2017-12-19T20:21:30.706Z,22.10
2017-12-19T20:24:01.159Z,24.87
2017-12-19T20:26:32.365Z,26.40
2017-12-19T20:29:02.791Z,23.40
2017-12-19T20:31:33.249Z,30.60
2017-12-19T20:34:04.448Z,27.07
2017-12-19T20:36:34.875Z,20.43
2017-12-19T20:39:05.590Z,27.73
2017-12-19T20:41:36.015Z,22.20
2017-12-19T20:44:06.478Z,26.90
2017-12-19T20:46:36.930Z,26.20
2017-12-19T20:49:08.162Z,32.20
2017-12-19T20:51:38.653Z,28.23
2017-12-19T20:54:09.109Z,30.37
2017-12-19T20:56:39.578Z,22.70
2017-12-19T20:59:10.028Z,30.03
2017-12-19T21:01:40.482Z,37.57
2017-12-19T21:04:10.927Z,24.67
2017-12-19T21:06:42.127Z,26.60
2017-12-19T21:09:12.606Z,32.53
2017-12-19T21:11:43.047Z,24.27
2017-12-19T21:14:14.288Z,33.30
2017-12-19T21:16:45.490Z,27.13
2017-12-19T21:19:15.934Z,24.40
2017-12-19T21:21:46.351Z,19.37
2017-12-19T21:24:16.826Z,26.13
2017-12-19T21:26:47.345Z,33.37
2017-12-19T21:29:18.558Z,24.80
2017-12-19T21:31:48.955Z,29.53
2017-12-19T21:34:19.422Z,30.30
2017-12-19T21:36:49.904Z,19.67
2017-12-19T21:39:20.349Z,23.20
2017-12-19T21:41:50.804Z,25.27
2017-12-19T21:44:21.244Z,25.27
2017-12-19T21:46:51.707Z,21.53
2017-12-19T21:49:22.179Z,33.00
2017-12-19T21:51:52.600Z,25.67
2017-12-19T21:54:23.043Z,23.47
2017-12-19T21:56:53.489Z,26.63
2017-12-19T21:59:24.706Z,38.30
2017-12-19T22:01:55.130Z,21.57
2017-12-19T22:04:25.694Z,21.27
2017-12-19T22:06:56.896Z,24.23
2017-12-19T22:09:27.346Z,23.70
2017-12-19T22:11:57.785Z,23.93
2017-12-19T22:14:29.007Z,24.73
2017-12-19T22:16:59.457Z,29.77
2017-12-19T22:19:30.706Z,32.43
2017-12-19T22:22:01.950Z,27.13
2017-12-19T22:24:33.201Z,27.83
2017-12-19T22:27:04.423Z,17.07
2017-12-19T22:29:34.874Z,26.07
2017-12-19T22:32:06.090Z,20.20
2017-12-19T22:34:36.566Z,23.77
2017-12-19T22:37:07.042Z,26.03
2017-12-19T22:39:37.491Z,20.90
2017-12-19T22:42:08.745Z,20.63
2017-12-19T22:44:39.975Z,23.87
2017-12-19T22:47:10.421Z,27.50
2017-12-19T22:49:41.657Z,24.03
2017-12-19T22:52:12.854Z,24.07
2017-12-19T22:54:43.295Z,25.03
2017-12-19T22:57:13.753Z,21.07
2017-12-19T22:59:44.978Z,19.40
2017-12-19T23:02:15.439Z,22.73
2017-12-19T23:04:46.672Z,22.23
2017-12-19T23:07:17.849Z,30.33
2017-12-19T23:09:48.322Z,19.20
2017-12-19T23:12:18.750Z,24.90
2017-12-19T23:14:49.182Z,24.10
2017-12-19T23:17:19.624Z,23.00
2017-12-19T23:19:50.827Z,20.73
2017-12-19T23:22:21.260Z,23.83
2017-12-19T23:24:51.698Z,27.90
2017-12-19T23:27:22.148Z,26.00
2017-12-19T23:29:53.363Z,31.13
2017-12-19T23:32:23.830Z,21.07
2017-12-19T23:34:55.034Z,23.60
2017-12-19T23:37:26.220Z,34.40
2017-12-19T23:39:57.434Z,23.03
2017-12-19T23:42:27.893Z,19.00
2017-12-19T23:44:59.065Z,27.60
2017-12-19T23:47:29.498Z,22.47
2017-12-19T23:50:04.908Z,24.50
2017-12-19T23:52:36.149Z,25.17
2017-12-19T23:55:07.399Z,21.50
2017-12-19T23:57:38.575Z,15.30
